STOCKHOLM / BROMMA current weather conditions

sailwx.info

Wind from 130 at 4 knots

Air temperature 8.0° C
Visibility: greater than 3.8 NM
Dewpoint 5.0° C
Present weather: Mist.

Last reported at 2015-Apr-25 21:20 UTC.
Time now 2015-Apr-25 23:25 UTC

Location: N 59°21' E 017°57'.
View on Google Maps.

See reports from other nearby stations

  
Tides and Currents Weather Stations Pressure Air Temp Water Temp Dewpoint Dewpoint Depression Visibility Wind Speed Wind Dir Waves Ship Positions
date/time (UTC)wind fromknots sea level pressurealtimeterstation pressurevisibilityair tempwater tempwave heightnotes
2015-Apr-25 22:20 150 3 2.6 8.0 Light rain.
2015-Apr-25 21:50 140 4 3.2 8.0 Light drizzle.
2015-Apr-25 21:20 130 4 3.8 8.0 Mist.
2015-Apr-25 20:50 140 5 4.3 8.0 Mist.
2015-Apr-25 20:20 140 4 4.3 8.0 Mist.
2015-Apr-25 19:50 130 6 4.9 8.0 Mist.
2015-Apr-25 19:20 140 6 4.9 8.0 Mist.
2015-Apr-25 18:50 140 7 5.4 8.0
2015-Apr-25 18:20 130 7 5.4 8.0
2015-Apr-25 17:50 130 8 5.4 8.0
2015-Apr-25 17:20 130 10 5.4 9.0
2015-Apr-25 16:50 130 8 5.410.0
2015-Apr-25 16:20 130 7 5.410.0
2015-Apr-25 15:50 140 10 5.410.0
2015-Apr-25 15:20 140 10 5.410.0
2015-Apr-25 14:50 150 11 5.412.0
2015-Apr-25 14:20 150 11 12.0
2015-Apr-25 13:50 160 12 5.412.0
2015-Apr-25 13:20 160 10 5.413.0
2015-Apr-25 12:50 150 12 5.412.0
2015-Apr-25 12:20 150 12 5.412.0
2015-Apr-25 11:50 150 15 5.412.0
2015-Apr-25 11:20 150 12 5.412.0
2015-Apr-25 10:50 150 11 5.413.0
2015-Apr-25 10:20 150 11 5.412.0
2015-Apr-25 09:50 160 11 5.412.0
2015-Apr-25 09:20 170 10 5.412.0
2015-Apr-25 08:50 160 10 12.0
2015-Apr-25 08:20 150 9 11.0
2015-Apr-25 07:50 130 10 5.410.0
2015-Apr-25 07:20 120 9 5.410.0
2015-Apr-25 06:50 130 6 5.4 9.0
2015-Apr-25 06:20 130 3 5.4 7.0
2015-Apr-25 05:50 150 4 5.4 7.0
2015-Apr-25 05:20 160 4 5.4 6.0
2015-Apr-25 04:50 140 4 5.4 6.0
2015-Apr-25 04:20 140 4 5.4 5.0
2015-Apr-25 03:50 130 3 5.4 4.0
2015-Apr-25 03:20 140 3 5.4 4.0
2015-Apr-25 02:50 140 2 5.4 4.0
2015-Apr-25 02:20 5.4 3.0
2015-Apr-25 01:50 5.4 3.0
2015-Apr-25 01:20 190 2 5.4 3.0
2015-Apr-25 00:50 5.4 2.0
2015-Apr-25 00:20 5.4 3.0
2015-Apr-24 23:50 5.4 3.0
2015-Apr-24 23:20 5.4 4.0
2015-Apr-24 22:50 5.4 4.0
2015-Apr-24 22:20 5.4 4.0
2015-Apr-24 21:50 5.4 5.0
2015-Apr-24 21:20 210 2 5.4 5.0
2015-Apr-24 20:50 5.4 6.0
2015-Apr-24 20:20 5.4 7.0
2015-Apr-24 19:50 8.0
2015-Apr-24 19:20 230 3 8.0
2015-Apr-24 18:50 230 4 9.0
2015-Apr-24 18:20 240 5 10.0
2015-Apr-24 17:50 250 4 10.0
2015-Apr-24 17:20 240 7 5.410.0 Light rain.
2015-Apr-24 16:50 260 7 10.0
2015-Apr-24 16:20 260 10 10.0
2015-Apr-24 15:50 260 10 11.0
2015-Apr-24 15:20 270 11 11.0
2015-Apr-24 14:50 270 10 11.0
2015-Apr-24 14:20 260 10 10.0
2015-Apr-24 13:50 260 12 10.0
2015-Apr-24 13:20 270 15 11.0
2015-Apr-24 12:50 260 12 11.0
2015-Apr-24 12:20 280 15 gusting 25 11.0
2015-Apr-24 11:50 280 15 10.0
2015-Apr-24 11:20 270 14 10.0
2015-Apr-24 10:50 280 13 9.0
2015-Apr-24 10:20 280 16 9.0
2015-Apr-24 09:50 280 14 9.0
2015-Apr-24 09:20 280 14 9.0
2015-Apr-24 08:50 270 12 8.0
2015-Apr-24 08:20 280 12 7.0
2015-Apr-24 07:50 280 12 7.0
2015-Apr-24 07:20 300 11 7.0
2015-Apr-24 06:50 320 10 7.0
2015-Apr-24 06:20 310 9 6.0
2015-Apr-24 05:50 320 8 5.0
2015-Apr-24 05:20 320 8 5.0
2015-Apr-24 04:50 310 6 5.0
2015-Apr-24 04:20 320 5 5.0
2015-Apr-24 03:50 340 7 5.0
2015-Apr-24 03:20 350 8 5.4 5.0
2015-Apr-24 02:50 030 3 5.4 4.0
2015-Apr-24 02:20 040 3 5.4 5.0
2015-Apr-24 01:50 5.4 3.0
2015-Apr-24 01:20 5.4 2.0
2015-Apr-24 00:50 5.4 3.0
2015-Apr-24 00:20 5.4 3.0
2015-Apr-23 23:50 220 2 5.4 4.0
2015-Apr-23 23:20 200 2 5.4 5.0